Time;durP1;ratioP1;P1;durP2;ratioP2;P2;SDS_P1;SDS_P2;PMS_P1;PMS_P2;Temp;Humidity;BMP_temperature;BMP_pressure;BME280_temperature;BME280_humidity;BME280_pressure;Samples;Min_cycle;Max_cycle;Signal;HPM_P1;HPM_P2
2023/08/26 00:00:39;;;;;;;9.77;6.65;;;;;;;;;;5090404;28;20127;-52
2023/08/26 00:03:06;;;;;;;8.13;6.60;;;;;;;;;;5090872;28;20442;-52
2023/08/26 00:05:34;;;;;;;8.35;6.72;;;;;;;;;;5090658;28;20047;-56
2023/08/26 00:08:01;;;;;;;10.07;7.60;;;;;;;;;;5090856;28;20655;-54
2023/08/26 00:10:27;;;;;;;9.48;7.28;;;;;;;;;;5089853;28;20047;-56
2023/08/26 00:12:54;;;;;;;11.27;8.82;;;;;;;;;;5091126;28;20640;-53
2023/08/26 00:15:21;;;;;;;11.40;9.82;;;;;;;;;;5080933;28;20036;-57
2023/08/26 00:17:47;;;;;;;10.68;8.25;;;;;;;;;;5093666;28;20131;-55
2023/08/26 00:20:15;;;;;;;8.55;7.60;;;;;;;;;;5098898;28;20040;-55
2023/08/26 00:22:43;;;;;;;11.80;8.43;;;;;;;;;;5108501;28;20056;-55
2023/08/26 00:25:10;;;;;;;10.20;8.00;;;;;;;;;;5099172;28;20131;-53
2023/08/26 00:27:36;;;;;;;8.60;7.55;;;;;;;;;;5094956;28;20548;-54
2023/08/26 00:30:03;;;;;;;11.13;8.40;;;;;;;;;;5096773;28;20055;-58
2023/08/26 00:32:30;;;;;;;9.63;7.38;;;;;;;;;;5106788;28;20166;-50
2023/08/26 00:34:57;;;;;;;10.45;7.68;;;;;;;;;;5114137;28;20094;-54
2023/08/26 00:37:23;;;;;;;9.85;6.80;;;;;;;;;;5113702;28;20565;-56
2023/08/26 00:39:51;;;;;;;9.75;7.18;;;;;;;;;;5113953;28;20058;-53
2023/08/26 00:42:18;;;;;;;9.10;7.32;;;;;;;;;;5113741;28;20523;-54
2023/08/26 00:44:44;;;;;;;10.77;7.90;;;;;;;;;;5101023;28;20054;-52
2023/08/26 00:47:11;;;;;;;10.93;8.25;;;;;;;;;;5093205;28;20044;-52
2023/08/26 00:49:38;;;;;;;9.52;8.15;;;;;;;;;;5093760;28;20135;-55
2023/08/26 00:52:06;;;;;;;13.60;9.23;;;;;;;;;;5094261;28;20505;-56
2023/08/26 00:54:35;;;;;;;13.73;9.93;;;;;;;;;;5093033;28;20048;-57
2023/08/26 00:57:05;;;;;;;11.65;9.75;;;;;;;;;;5093310;28;20044;-57
2023/08/26 00:59:32;;;;;;;11.75;8.82;;;;;;;;;;5093299;28;20052;-57
2023/08/26 01:01:58;;;;;;;9.02;7.28;;;;;;;;;;5092603;28;20072;-52
2023/08/26 01:04:25;;;;;;;10.88;8.10;;;;;;;;;;5092354;28;20048;-55
2023/08/26 01:06:52;;;;;;;9.82;7.47;;;;;;;;;;5092958;28;20421;-52
2023/08/26 01:09:18;;;;;;;9.35;7.30;;;;;;;;;;5093066;28;20050;-55
2023/08/26 01:12:08;;;;;;;9.48;7.53;;;;;;;;;;5092771;28;20436;-54
2023/08/26 01:14:36;;;;;;;10.25;8.02;;;;;;;;;;5094502;28;20390;-57
2023/08/26 01:17:05;;;;;;;9.32;7.40;;;;;;;;;;5113078;28;20134;-53
2023/08/26 01:19:36;;;;;;;10.32;7.28;;;;;;;;;;5113307;28;20055;-56
2023/08/26 01:22:06;;;;;;;9.65;8.27;;;;;;;;;;5110533;28;20047;-57
2023/08/26 01:24:35;;;;;;;10.63;8.10;;;;;;;;;;5092608;28;20150;-59
2023/08/26 01:27:02;;;;;;;9.35;7.20;;;;;;;;;;5092440;28;20127;-57
2023/08/26 01:29:29;;;;;;;10.55;7.65;;;;;;;;;;5092509;28;20051;-58
2023/08/26 01:32:06;;;;;;;12.10;7.70;;;;;;;;;;5092220;28;20130;-50
2023/08/26 01:34:36;;;;;;;8.90;7.05;;;;;;;;;;5111109;28;20047;-53
2023/08/26 01:37:04;;;;;;;9.13;7.30;;;;;;;;;;5112603;28;20094;-50
2023/08/26 01:39:31;;;;;;;8.60;6.35;;;;;;;;;;5112596;28;20051;-56
2023/08/26 01:42:02;;;;;;;9.85;7.43;;;;;;;;;;5112547;28;20499;-56
2023/08/26 01:44:30;;;;;;;9.77;7.28;;;;;;;;;;5110838;28;20047;-56
2023/08/26 01:46:57;;;;;;;10.50;8.20;;;;;;;;;;5112525;28;20138;-57
2023/08/26 01:49:24;;;;;;;10.27;8.50;;;;;;;;;;5112666;28;20054;-57
2023/08/26 01:51:50;;;;;;;10.93;9.15;;;;;;;;;;5112340;28;20048;-55
2023/08/26 01:54:17;;;;;;;11.75;9.55;;;;;;;;;;5112339;28;20079;-57
2023/08/26 01:56:44;;;;;;;11.68;8.85;;;;;;;;;;5111960;28;20055;-59
2023/08/26 01:59:11;;;;;;;12.07;9.60;;;;;;;;;;5112780;28;20111;-57
2023/08/26 02:01:39;;;;;;;9.85;7.57;;;;;;;;;;5112254;28;20055;-57
2023/08/26 02:04:06;;;;;;;10.07;7.88;;;;;;;;;;5112395;28;20040;-58
2023/08/26 02:06:32;;;;;;;10.50;8.10;;;;;;;;;;5112300;28;20047;-57
2023/08/26 02:08:59;;;;;;;10.98;8.20;;;;;;;;;;5112404;28;20401;-56
2023/08/26 02:11:26;;;;;;;9.73;8.10;;;;;;;;;;5111653;28;20054;-57
2023/08/26 02:13:52;;;;;;;9.65;7.65;;;;;;;;;;5112067;28;20048;-59
2023/08/26 02:16:20;;;;;;;8.57;7.60;;;;;;;;;;5112310;28;20409;-56
2023/08/26 02:18:47;;;;;;;10.68;8.18;;;;;;;;;;5112180;28;20047;-52
2023/08/26 02:21:14;;;;;;;9.02;7.50;;;;;;;;;;5112154;28;20544;-55
2023/08/26 02:23:41;;;;;;;8.85;7.43;;;;;;;;;;5096252;28;20052;-55
2023/08/26 02:26:07;;;;;;;10.43;6.50;;;;;;;;;;5091866;28;20466;-56
2023/08/26 02:28:34;;;;;;;8.38;6.55;;;;;;;;;;5092066;28;20122;-57
2023/08/26 02:31:01;;;;;;;9.82;7.20;;;;;;;;;;5091727;28;20497;-53
2023/08/26 02:33:29;;;;;;;10.40;7.07;;;;;;;;;;5091830;28;20135;-59
2023/08/26 02:35:56;;;;;;;10.73;7.55;;;;;;;;;;5091928;28;20045;-60
2023/08/26 02:38:23;;;;;;;10.35;8.27;;;;;;;;;;5091668;28;20052;-53
2023/08/26 02:40:53;;;;;;;10.98;8.00;;;;;;;;;;5091995;28;20482;-53
2023/08/26 02:43:20;;;;;;;9.80;7.45;;;;;;;;;;5091603;28;20074;-55
2023/08/26 02:45:46;;;;;;;10.70;6.00;;;;;;;;;;5091493;28;20044;-57
2023/08/26 02:48:13;;;;;;;9.73;5.63;;;;;;;;;;5091872;28;20454;-57
2023/08/26 02:50:41;;;;;;;6.20;4.35;;;;;;;;;;5091682;28;20046;-57
2023/08/26 02:53:08;;;;;;;7.32;4.78;;;;;;;;;;5091547;28;20485;-56
2023/08/26 02:55:34;;;;;;;9.10;4.80;;;;;;;;;;5091465;28;20044;-56
2023/08/26 02:58:01;;;;;;;7.88;4.60;;;;;;;;;;5091446;28;20040;-59
2023/08/26 03:00:27;;;;;;;7.50;4.85;;;;;;;;;;5091402;28;20503;-51
2023/08/26 03:02:54;;;;;;;6.82;4.50;;;;;;;;;;5091001;28;20051;-51
2023/08/26 03:05:21;;;;;;;5.65;4.20;;;;;;;;;;5091345;28;20560;-55
2023/08/26 03:07:49;;;;;;;7.25;4.20;;;;;;;;;;5091248;28;20131;-60
2023/08/26 03:10:15;;;;;;;9.15;4.53;;;;;;;;;;5071167;28;20535;-59
2023/08/26 03:12:42;;;;;;;5.95;3.88;;;;;;;;;;5071434;28;20549;-56
2023/08/26 03:15:09;;;;;;;6.85;3.83;;;;;;;;;;5090394;28;20044;-56
2023/08/26 03:17:36;;;;;;;8.23;4.30;;;;;;;;;;5110563;28;20568;-60
2023/08/26 03:20:03;;;;;;;6.90;4.03;;;;;;;;;;5111340;28;20040;-59
2023/08/26 03:22:30;;;;;;;6.50;4.10;;;;;;;;;;5111653;28;20740;-57
2023/08/26 03:24:58;;;;;;;5.28;3.67;;;;;;;;;;5111672;28;20131;-58
2023/08/26 03:27:24;;;;;;;7.22;3.85;;;;;;;;;;5114558;28;20060;-60
2023/08/26 03:29:51;;;;;;;8.15;4.13;;;;;;;;;;5115246;28;20059;-57
2023/08/26 03:32:18;;;;;;;7.35;3.78;;;;;;;;;;5114810;28;20492;-56
2023/08/26 03:34:44;;;;;;;5.85;3.75;;;;;;;;;;5114880;28;20083;-58
2023/08/26 03:37:11;;;;;;;5.82;3.72;;;;;;;;;;5114937;28;20040;-52
2023/08/26 03:39:38;;;;;;;6.78;4.03;;;;;;;;;;5115177;28;20039;-53
2023/08/26 03:42:06;;;;;;;6.10;3.50;;;;;;;;;;5115066;28;20052;-51
2023/08/26 03:44:33;;;;;;;5.55;3.45;;;;;;;;;;5115059;28;20047;-53
2023/08/26 03:46:59;;;;;;;6.93;3.67;;;;;;;;;;5107682;28;20075;-56
2023/08/26 03:49:26;;;;;;;6.10;3.28;;;;;;;;;;5094736;28;20101;-54
2023/08/26 03:51:52;;;;;;;6.85;3.30;;;;;;;;;;5094533;28;20050;-56
2023/08/26 03:54:19;;;;;;;6.45;3.67;;;;;;;;;;5094419;28;20079;-57
2023/08/26 03:56:46;;;;;;;5.90;3.30;;;;;;;;;;5094775;28;20054;-57
2023/08/26 03:59:14;;;;;;;6.50;3.08;;;;;;;;;;5112614;28;20489;-58
2023/08/26 04:01:41;;;;;;;5.75;2.90;;;;;;;;;;5114376;28;20134;-58
2023/08/26 04:04:08;;;;;;;5.07;3.05;;;;;;;;;;5114649;28;20557;-60
2023/08/26 04:06:34;;;;;;;5.63;2.88;;;;;;;;;;5113286;28;20048;-57
2023/08/26 04:09:02;;;;;;;4.55;2.65;;;;;;;;;;5094024;28;20076;-56
2023/08/26 04:11:29;;;;;;;4.75;2.80;;;;;;;;;;5093820;28;20048;-60
2023/08/26 04:13:56;;;;;;;5.88;3.60;;;;;;;;;;5112071;28;20051;-59
2023/08/26 04:16:23;;;;;;;7.68;3.38;;;;;;;;;;5114168;28;20086;-53
2023/08/26 04:18:50;;;;;;;8.43;3.10;;;;;;;;;;5112572;28;20135;-54
2023/08/26 04:21:17;;;;;;;5.32;2.90;;;;;;;;;;5114222;28;20173;-50
2023/08/26 04:23:43;;;;;;;4.32;2.60;;;;;;;;;;5114133;28;20047;-54
2023/08/26 04:26:10;;;;;;;6.22;2.83;;;;;;;;;;5131108;22;20070;-85
2023/08/26 04:28:37;;;;;;;9.65;2.80;;;;;;;;;;5065531;28;20518;-85
2023/08/26 04:31:03;;;;;;;4.68;2.58;;;;;;;;;;5080620;28;20048;-85
2023/08/26 04:33:31;;;;;;;4.20;2.92;;;;;;;;;;5076161;28;20053;-84
2023/08/26 04:35:58;;;;;;;6.50;3.08;;;;;;;;;;5078936;28;20051;-86
2023/08/26 04:38:24;;;;;;;5.10;2.70;;;;;;;;;;5082854;28;20128;-85
2023/08/26 04:40:51;;;;;;;5.50;3.42;;;;;;;;;;5091887;28;20132;-87
2023/08/26 04:43:17;;;;;;;4.93;3.33;;;;;;;;;;5083969;28;20107;-85
2023/08/26 04:45:44;;;;;;;7.20;3.60;;;;;;;;;;5076970;28;20175;-87
2023/08/26 04:48:10;;;;;;;6.38;3.67;;;;;;;;;;5077418;28;20047;-86
2023/08/26 04:50:40;;;;;;;5.65;3.42;;;;;;;;;;5083993;28;20069;-85
2023/08/26 04:53:06;;;;;;;7.70;3.38;;;;;;;;;;5070860;28;20053;-84
2023/08/26 04:55:33;;;;;;;5.95;3.28;;;;;;;;;;5057326;28;20044;-85
2023/08/26 04:57:59;;;;;;;5.93;3.17;;;;;;;;;;5075276;28;20049;-84
2023/08/26 05:00:26;;;;;;;5.45;2.88;;;;;;;;;;5059911;28;20052;-84
2023/08/26 05:02:53;;;;;;;5.97;3.38;;;;;;;;;;5055822;28;20048;-85
2023/08/26 05:05:20;;;;;;;5.00;3.03;;;;;;;;;;5054515;28;20491;-84
2023/08/26 05:07:48;;;;;;;5.10;3.17;;;;;;;;;;5063756;28;20041;-84
2023/08/26 05:10:14;;;;;;;7.47;4.10;;;;;;;;;;5066736;28;20052;-84
2023/08/26 05:12:41;;;;;;;6.32;3.88;;;;;;;;;;5066985;28;20047;-84
2023/08/26 05:15:08;;;;;;;6.00;3.78;;;;;;;;;;5054772;28;20400;-84
2023/08/26 05:17:34;;;;;;;5.10;3.55;;;;;;;;;;5054377;28;20474;-84
2023/08/26 05:20:01;;;;;;;5.80;3.85;;;;;;;;;;5067516;28;20071;-86
2023/08/26 05:22:28;;;;;;;5.35;3.13;;;;;;;;;;5085025;28;20029;-87
2023/08/26 05:24:55;;;;;;;5.72;3.30;;;;;;;;;;5060530;28;20045;-84
2023/08/26 05:27:23;;;;;;;6.68;3.17;;;;;;;;;;5060356;28;20041;-84
2023/08/26 05:29:50;;;;;;;6.20;3.33;;;;;;;;;;5065921;28;20091;-84
2023/08/26 05:32:16;;;;;;;6.85;3.97;;;;;;;;;;5080940;28;20104;-85
2023/08/26 05:34:43;;;;;;;6.50;4.07;;;;;;;;;;5090858;28;20559;-85
2023/08/26 05:37:10;;;;;;;5.03;3.22;;;;;;;;;;5089585;28;20044;-85
2023/08/26 05:39:36;;;;;;;5.85;3.45;;;;;;;;;;5091009;28;20052;-85
2023/08/26 05:42:05;;;;;;;3.83;2.53;;;;;;;;;;5077786;28;20050;-85
2023/08/26 05:44:31;;;;;;;6.72;3.28;;;;;;;;;;5069826;28;20036;-85
2023/08/26 05:46:58;;;;;;;5.15;2.90;;;;;;;;;;5076878;28;20043;-85
2023/08/26 05:49:24;;;;;;;5.13;3.22;;;;;;;;;;5071131;28;20036;-84
2023/08/26 05:51:51;;;;;;;5.30;3.28;;;;;;;;;;5076746;28;20051;-85
2023/08/26 05:54:17;;;;;;;6.82;3.30;;;;;;;;;;5064568;28;20132;-85
2023/08/26 05:56:44;;;;;;;5.53;2.70;;;;;;;;;;5065005;28;20056;-86
2023/08/26 05:59:12;;;;;;;4.65;3.00;;;;;;;;;;5064053;28;20435;-85
2023/08/26 06:01:38;;;;;;;5.80;3.03;;;;;;;;;;5067515;28;20043;-85
2023/08/26 06:04:06;;;;;;;5.75;3.33;;;;;;;;;;5068111;28;20053;-85
2023/08/26 06:06:32;;;;;;;5.32;3.13;;;;;;;;;;5062561;28;20131;-84
2023/08/26 06:08:59;;;;;;;6.18;3.15;;;;;;;;;;5063037;28;20073;-86
2023/08/26 06:11:26;;;;;;;5.78;3.10;;;;;;;;;;5063618;28;20056;-84
2023/08/26 06:13:54;;;;;;;4.85;3.17;;;;;;;;;;5071070;28;20045;-84
2023/08/26 06:16:21;;;;;;;5.30;3.10;;;;;;;;;;5064923;28;20472;-85
2023/08/26 06:18:48;;;;;;;4.97;2.92;;;;;;;;;;5063863;28;20113;-85
2023/08/26 06:21:15;;;;;;;4.28;2.90;;;;;;;;;;5062632;28;20045;-85
2023/08/26 06:23:42;;;;;;;6.18;2.85;;;;;;;;;;5067109;28;20079;-85
2023/08/26 06:26:08;;;;;;;5.05;3.38;;;;;;;;;;5082108;28;20044;-85
2023/08/26 06:28:35;;;;;;;6.07;2.92;;;;;;;;;;5081934;28;20398;-85
2023/08/26 06:31:02;;;;;;;4.50;2.90;;;;;;;;;;5081828;28;20131;-83
2023/08/26 06:33:30;;;;;;;5.00;2.90;;;;;;;;;;5073512;28;20041;-86
2023/08/26 06:35:57;;;;;;;5.35;2.95;;;;;;;;;;5040190;28;20046;-86
2023/08/26 06:38:23;;;;;;;4.43;2.30;;;;;;;;;;5040371;28;20072;-85
2023/08/26 06:40:54;;;;;;;4.80;3.30;;;;;;;;;;5045455;28;20045;-85
2023/08/26 06:43:20;;;;;;;4.03;2.40;;;;;;;;;;5070822;28;21298;-86
2023/08/26 06:45:47;;;;;;;5.20;2.95;;;;;;;;;;5078881;28;20055;-86
2023/08/26 06:48:13;;;;;;;5.07;2.70;;;;;;;;;;5078476;28;20049;-85
2023/08/26 06:50:41;;;;;;;6.28;2.92;;;;;;;;;;5078932;28;20052;-85
2023/08/26 06:53:08;;;;;;;5.55;3.20;;;;;;;;;;5080719;28;20044;-85
2023/08/26 06:55:36;;;;;;;4.88;3.25;;;;;;;;;;5063419;28;20117;-85
2023/08/26 06:58:02;;;;;;;6.47;3.55;;;;;;;;;;5061929;28;20075;-85
2023/08/26 07:00:29;;;;;;;5.63;3.08;;;;;;;;;;5059932;28;20045;-86
2023/08/26 07:02:55;;;;;;;5.55;2.90;;;;;;;;;;5062020;28;20423;-86
2023/08/26 07:05:22;;;;;;;4.13;2.55;;;;;;;;;;5065946;28;20040;-85
2023/08/26 07:07:49;;;;;;;5.78;3.30;;;;;;;;;;5083529;28;20055;-86
2023/08/26 07:10:16;;;;;;;6.35;3.10;;;;;;;;;;5084666;28;20131;-85
2023/08/26 07:12:43;;;;;;;6.68;3.60;;;;;;;;;;5082212;28;20066;-85
2023/08/26 07:15:10;;;;;;;4.80;3.20;;;;;;;;;;5074252;28;20045;-85
2023/08/26 07:17:36;;;;;;;5.22;2.95;;;;;;;;;;5059358;28;20052;-85
2023/08/26 07:20:03;;;;;;;5.30;2.80;;;;;;;;;;5063228;28;20045;-85
2023/08/26 07:22:30;;;;;;;5.30;2.92;;;;;;;;;;5061505;28;20472;-85
2023/08/26 07:24:58;;;;;;;5.10;3.10;;;;;;;;;;5062666;28;20049;-86
2023/08/26 07:27:24;;;;;;;5.68;3.30;;;;;;;;;;5074709;28;20251;-85
2023/08/26 07:29:51;;;;;;;6.03;3.33;;;;;;;;;;5083665;28;20051;-86
2023/08/26 07:32:17;;;;;;;6.03;3.85;;;;;;;;;;5083194;28;20131;-85
2023/08/26 07:34:44;;;;;;;6.00;3.20;;;;;;;;;;5085817;28;20131;-85
2023/08/26 07:37:11;;;;;;;4.82;3.10;;;;;;;;;;5075913;28;20606;-85
2023/08/26 07:39:38;;;;;;;5.35;3.08;;;;;;;;;;5063683;28;20049;-85
2023/08/26 07:42:06;;;;;;;6.40;3.38;;;;;;;;;;5083439;28;20568;-85
2023/08/26 07:44:33;;;;;;;6.40;3.10;;;;;;;;;;5083909;28;20495;-85
2023/08/26 07:47:00;;;;;;;5.13;3.20;;;;;;;;;;5075322;28;20074;-86
2023/08/26 07:49:26;;;;;;;6.20;3.78;;;;;;;;;;5085249;28;20135;-86
2023/08/26 07:51:53;;;;;;;5.72;3.65;;;;;;;;;;5083629;28;20056;-85
2023/08/26 07:54:19;;;;;;;5.20;3.60;;;;;;;;;;5083637;28;20045;-87
2023/08/26 07:56:46;;;;;;;6.32;3.92;;;;;;;;;;5075853;28;20060;-85
2023/08/26 07:59:14;;;;;;;7.15;4.65;;;;;;;;;;5081537;28;20063;-86
2023/08/26 08:01:40;;;;;;;5.40;3.85;;;;;;;;;;5083302;28;20072;-85
2023/08/26 08:04:07;;;;;;;6.72;4.20;;;;;;;;;;5084784;28;20135;-86
2023/08/26 08:06:33;;;;;;;7.30;4.22;;;;;;;;;;5086842;28;20051;-85
2023/08/26 08:09:00;;;;;;;7.32;4.93;;;;;;;;;;5079221;28;20045;-84
2023/08/26 08:11:26;;;;;;;6.53;4.53;;;;;;;;;;5079503;28;20054;-84
2023/08/26 08:13:53;;;;;;;5.60;4.18;;;;;;;;;;5059487;28;20045;-85
2023/08/26 08:16:21;;;;;;;6.88;4.90;;;;;;;;;;5058755;28;20045;-85
2023/08/26 08:18:48;;;;;;;7.38;4.70;;;;;;;;;;5060253;28;20049;-85
2023/08/26 08:21:14;;;;;;;7.75;4.55;;;;;;;;;;5059475;28;20045;-85
2023/08/26 08:23:43;;;;;;;6.90;4.80;;;;;;;;;;5059417;28;20045;-85
2023/08/26 08:26:09;;;;;;;8.20;5.40;;;;;;;;;;5059475;28;20048;-85
2023/08/26 08:28:36;;;;;;;6.57;4.65;;;;;;;;;;5068835;28;20483;-85
2023/08/26 08:31:02;;;;;;;6.18;4.63;;;;;;;;;;5061155;28;20072;-85
2023/08/26 08:33:33;;;;;;;7.88;4.78;;;;;;;;;;5059264;28;20049;-85
2023/08/26 08:36:00;;;;;;;7.80;4.97;;;;;;;;;;5058052;28;20048;-85
2023/08/26 08:38:26;;;;;;;8.38;5.55;;;;;;;;;;5064518;28;20040;-85
2023/08/26 08:40:53;;;;;;;6.72;4.70;;;;;;;;;;5079440;28;20044;-85
2023/08/26 08:43:21;;;;;;;7.72;4.95;;;;;;;;;;5065972;28;20121;-86
2023/08/26 08:45:50;;;;;;;7.43;4.80;;;;;;;;;;5059960;28;20045;-85
2023/08/26 08:48:18;;;;;;;6.85;4.95;;;;;;;;;;5059260;28;20076;-85
2023/08/26 08:50:47;;;;;;;6.80;4.88;;;;;;;;;;5079471;28;20426;-85
2023/08/26 08:53:17;;;;;;;7.05;5.05;;;;;;;;;;5080151;28;20048;-85
2023/08/26 08:55:44;;;;;;;7.68;5.00;;;;;;;;;;5080771;28;20040;-86
2023/08/26 08:58:12;;;;;;;6.72;4.53;;;;;;;;;;5077333;28;20407;-85
2023/08/26 09:00:39;;;;;;;6.97;5.38;;;;;;;;;;5060548;28;20041;-85
2023/08/26 09:03:08;;;;;;;6.57;4.63;;;;;;;;;;5057083;28;20119;-85
2023/08/26 09:05:35;;;;;;;7.90;5.03;;;;;;;;;;5057708;28;20048;-85
2023/08/26 09:08:03;;;;;;;6.95;4.68;;;;;;;;;;5056185;28;20065;-85
2023/08/26 09:10:30;;;;;;;8.40;5.30;;;;;;;;;;5056782;28;20049;-85
2023/08/26 09:12:57;;;;;;;6.93;5.75;;;;;;;;;;5056792;28;20400;-85
2023/08/26 09:15:24;;;;;;;6.55;5.25;;;;;;;;;;5056726;28;20056;-83
2023/08/26 09:17:57;;;;;;;6.32;5.03;;;;;;;;;;5067725;28;20059;-85
2023/08/26 09:20:24;;;;;;;6.93;4.53;;;;;;;;;;5070202;28;20131;-86
2023/08/26 09:23:02;;;;;;;7.03;4.57;;;;;;;;;;5076305;28;20045;-86
2023/08/26 09:25:31;;;;;;;7.55;5.18;;;;;;;;;;5076959;28;20426;-86
2023/08/26 09:27:59;;;;;;;7.47;4.45;;;;;;;;;;5076298;28;20044;-85
2023/08/26 09:30:25;;;;;;;6.93;4.55;;;;;;;;;;5066396;28;20049;-86
2023/08/26 09:32:55;;;;;;;6.30;4.50;;;;;;;;;;5074461;28;20041;-86
2023/08/26 09:35:22;;;;;;;8.20;4.40;;;;;;;;;;5069328;28;20049;-86
2023/08/26 09:37:56;;;;;;;6.97;4.57;;;;;;;;;;5077652;28;20052;-86
2023/08/26 09:40:23;;;;;;;7.65;4.85;;;;;;;;;;5076737;28;20481;-86
2023/08/26 09:42:51;;;;;;;7.25;4.75;;;;;;;;;;5078637;28;20500;-86
2023/08/26 09:45:18;;;;;;;7.05;4.72;;;;;;;;;;5077826;28;20116;-86
2023/08/26 09:47:47;;;;;;;8.43;5.38;;;;;;;;;;5063431;28;20061;-86
2023/08/26 09:50:14;;;;;;;10.77;5.60;;;;;;;;;;5065881;28;20113;-86
2023/08/26 09:52:45;;;;;;;7.45;4.68;;;;;;;;;;5071497;28;20051;-86
2023/08/26 09:55:12;;;;;;;9.13;5.40;;;;;;;;;;5074757;28;20069;-87
2023/08/26 09:57:38;;;;;;;7.50;4.90;;;;;;;;;;5084108;28;20123;-85
2023/08/26 10:00:10;;;;;;;6.25;4.57;;;;;;;;;;5090876;28;20127;-86
2023/08/26 10:02:38;;;;;;;6.45;4.57;;;;;;;;;;5096373;28;20036;-84
2023/08/26 10:05:10;;;;;;;6.80;5.10;;;;;;;;;;5056751;28;20053;-85
2023/08/26 10:07:38;;;;;;;7.07;4.32;;;;;;;;;;5091353;28;20128;-85
2023/08/26 10:10:09;;;;;;;6.63;4.25;;;;;;;;;;5096619;28;20041;-85
2023/08/26 10:12:40;;;;;;;7.20;4.65;;;;;;;;;;5096024;28;20052;-84
2023/08/26 10:15:12;;;;;;;6.80;4.38;;;;;;;;;;5045700;28;20408;-85
2023/08/26 10:17:41;;;;;;;7.43;4.22;;;;;;;;;;5056895;28;20076;-83
2023/08/26 10:20:10;;;;;;;8.70;4.60;;;;;;;;;;5081638;28;20491;-84
2023/08/26 10:22:37;;;;;;;9.32;5.03;;;;;;;;;;5062233;28;20057;-84
2023/08/26 10:25:05;;;;;;;8.80;5.15;;;;;;;;;;5073441;28;20045;-85
2023/08/26 10:27:32;;;;;;;6.80;4.65;;;;;;;;;;5078160;28;20449;-84
2023/08/26 10:29:59;;;;;;;8.90;4.65;;;;;;;;;;5081123;28;20049;-87
2023/08/26 10:32:29;;;;;;;6.72;4.80;;;;;;;;;;5061982;28;20041;-88
2023/08/26 10:34:57;;;;;;;7.05;4.40;;;;;;;;;;5062942;28;20073;-87
2023/08/26 10:37:25;;;;;;;6.50;4.35;;;;;;;;;;5080588;28;20044;-83
2023/08/26 10:39:51;;;;;;;8.10;4.88;;;;;;;;;;5082916;28;20052;-85
2023/08/26 10:42:20;;;;;;;7.97;4.40;;;;;;;;;;5084821;28;20060;-84
2023/08/26 10:44:48;;;;;;;10.60;7.00;;;;;;;;;;5082859;28;20517;-85
2023/08/26 10:47:38;;;;;;;9.50;5.65;;;;;;;;;;5083607;28;20135;-86
2023/08/26 10:50:14;;;;;;;;;;;;;;;;;;5083871;28;20111;-86
2023/08/26 10:52:42;;;;;;;12.55;7.95;;;;;;;;;;5078336;28;19908;-87
2023/08/26 10:55:14;;;;;;;7.20;5.43;;;;;;;;;;5099874;28;20064;-81
2023/08/26 10:58:01;;;;;;;12.57;7.75;;;;;;;;;;5091462;28;20041;-85
2023/08/26 11:00:27;;;;;;;11.48;8.07;;;;;;;;;;5093521;28;20045;-82
2023/08/26 11:02:55;;;;;;;10.32;6.10;;;;;;;;;;5084947;28;20526;-83
2023/08/26 11:05:22;;;;;;;9.90;6.03;;;;;;;;;;5082683;28;20165;-84
2023/08/26 11:07:48;;;;;;;9.23;5.60;;;;;;;;;;5083144;28;20044;-83
2023/08/26 11:10:25;;;;;;;8.43;5.55;;;;;;;;;;5079051;28;20060;-84
2023/08/26 11:12:51;;;;;;;8.50;4.90;;;;;;;;;;5080712;28;20051;-84
2023/08/26 11:15:18;;;;;;;8.55;4.72;;;;;;;;;;5082905;28;20046;-84
2023/08/26 11:17:45;;;;;;;6.95;4.28;;;;;;;;;;5077836;28;20048;-83
2023/08/26 11:20:13;;;;;;;7.43;4.57;;;;;;;;;;5080361;28;20048;-82
2023/08/26 11:22:39;;;;;;;7.25;4.10;;;;;;;;;;5070570;28;20041;-82
2023/08/26 11:25:06;;;;;;;7.15;4.15;;;;;;;;;;5058575;28;20496;-81
2023/08/26 11:27:33;;;;;;;5.85;4.38;;;;;;;;;;5058817;28;20056;-81
2023/08/26 11:30:00;;;;;;;6.32;3.95;;;;;;;;;;5057893;28;20418;-84
2023/08/26 11:32:29;;;;;;;6.15;4.45;;;;;;;;;;5056585;28;20044;-84
2023/08/26 11:34:56;;;;;;;7.60;4.82;;;;;;;;;;5066393;28;20045;-82
2023/08/26 11:37:24;;;;;;;6.32;4.15;;;;;;;;;;5063452;28;20045;-85
2023/08/26 11:39:50;;;;;;;6.85;4.28;;;;;;;;;;5078124;28;20041;-82
2023/08/26 11:42:17;;;;;;;18.85;5.40;;;;;;;;;;5092182;28;20063;-80
2023/08/26 11:44:45;;;;;;;8.00;4.57;;;;;;;;;;5080776;28;20041;-80
2023/08/26 11:47:13;;;;;;;9.88;4.82;;;;;;;;;;5079172;28;20041;-80
2023/08/26 11:49:40;;;;;;;6.88;4.22;;;;;;;;;;5067067;28;20059;-80
2023/08/26 11:52:07;;;;;;;7.90;4.50;;;;;;;;;;5064417;28;20531;-83
2023/08/26 11:54:35;;;;;;;6.10;3.97;;;;;;;;;;5068836;28;20093;-84
2023/08/26 11:57:02;;;;;;;8.50;4.07;;;;;;;;;;5069220;28;20045;-80
2023/08/26 11:59:38;;;;;;;7.93;4.03;;;;;;;;;;5068413;28;20057;-81
2023/08/26 12:02:19;;;;;;;16.10;4.35;;;;;;;;;;5065848;28;20043;-79
2023/08/26 12:04:46;;;;;;;5.97;3.72;;;;;;;;;;5067731;28;20334;-79
2023/08/26 12:07:12;;;;;;;11.55;4.70;;;;;;;;;;5060169;28;20481;-82
2023/08/26 12:09:40;;;;;;;6.57;4.03;;;;;;;;;;5066773;28;20123;-80
2023/08/26 12:12:07;;;;;;;6.22;4.25;;;;;;;;;;5062634;28;20044;-81
2023/08/26 12:14:34;;;;;;;7.00;3.97;;;;;;;;;;5078911;28;20469;-81
2023/08/26 12:17:03;;;;;;;7.38;4.32;;;;;;;;;;5081704;28;20051;-85
2023/08/26 12:19:31;;;;;;;5.32;4.28;;;;;;;;;;5068814;28;20049;-86
2023/08/26 12:22:00;;;;;;;7.40;4.72;;;;;;;;;;5075326;28;20075;-86
2023/08/26 12:24:26;;;;;;;7.22;4.40;;;;;;;;;;5080540;28;20602;-86
2023/08/26 12:26:54;;;;;;;5.65;4.07;;;;;;;;;;5078381;28;20048;-87
2023/08/26 12:29:22;;;;;;;6.50;4.35;;;;;;;;;;5080934;28;20318;-83
2023/08/26 12:31:49;;;;;;;6.70;4.13;;;;;;;;;;5081384;28;20037;-87
2023/08/26 12:34:16;;;;;;;6.88;4.20;;;;;;;;;;5059137;28;20136;-85
2023/08/26 12:36:45;;;;;;;7.88;4.32;;;;;;;;;;5064976;28;20059;-80
2023/08/26 12:39:11;;;;;;;6.43;4.30;;;;;;;;;;5056953;28;20049;-82
2023/08/26 12:41:38;;;;;;;6.93;4.30;;;;;;;;;;5057498;28;20419;-82
2023/08/26 12:44:06;;;;;;;11.38;5.38;;;;;;;;;;5059579;28;20049;-81
2023/08/26 12:46:33;;;;;;;9.95;4.53;;;;;;;;;;5060111;28;20088;-84
2023/08/26 12:49:00;;;;;;;7.20;3.92;;;;;;;;;;5066030;28;20132;-86
2023/08/26 12:51:26;;;;;;;7.32;4.47;;;;;;;;;;5060549;28;20053;-84
2023/08/26 12:53:53;;;;;;;6.25;4.47;;;;;;;;;;5065099;28;20041;-85
2023/08/26 12:56:20;;;;;;;5.90;3.38;;;;;;;;;;5064778;28;20053;-85
2023/08/26 12:58:48;;;;;;;5.18;3.70;;;;;;;;;;5044198;28;20055;-85
2023/08/26 13:01:16;;;;;;;6.85;4.05;;;;;;;;;;5074477;28;20051;-84
2023/08/26 13:03:43;;;;;;;5.20;4.32;;;;;;;;;;5062753;28;20140;-83
2023/08/26 13:06:09;;;;;;;7.32;4.20;;;;;;;;;;5053842;28;20427;-81
2023/08/26 13:08:36;;;;;;;22.63;17.10;;;;;;;;;;5067157;28;20044;-83
2023/08/26 13:11:03;;;;;;;8.73;7.03;;;;;;;;;;5056858;28;20128;-82
2023/08/26 13:13:29;;;;;;;7.78;5.97;;;;;;;;;;5053192;28;20048;-83
2023/08/26 13:15:56;;;;;;;5.75;4.05;;;;;;;;;;5057257;28;20417;-84
2023/08/26 13:18:24;;;;;;;9.73;6.15;;;;;;;;;;5058981;28;20053;-81
2023/08/26 13:20:51;;;;;;;9.90;6.75;;;;;;;;;;5069823;28;20051;-83
2023/08/26 13:23:17;;;;;;;6.38;4.50;;;;;;;;;;5055983;28;20418;-85
2023/08/26 13:25:47;;;;;;;6.43;4.70;;;;;;;;;;5055937;28;20053;-80
2023/08/26 13:28:15;;;;;;;6.22;4.57;;;;;;;;;;5066308;28;20655;-83
2023/08/26 13:30:41;;;;;;;6.53;4.07;;;;;;;;;;5073207;28;20041;-84
2023/08/26 13:33:08;;;;;;;6.03;4.35;;;;;;;;;;5068864;28;20051;-86
2023/08/26 13:35:36;;;;;;;6.85;4.55;;;;;;;;;;5056751;28;20416;-84
2023/08/26 13:38:02;;;;;;;5.55;4.00;;;;;;;;;;5073046;28;20118;-82
2023/08/26 13:40:29;;;;;;;6.90;3.58;;;;;;;;;;5072208;28;20056;-84
2023/08/26 13:42:55;;;;;;;6.68;3.88;;;;;;;;;;5058693;28;20045;-82
2023/08/26 13:45:22;;;;;;;15.50;9.95;;;;;;;;;;5058511;28;20051;-82
2023/08/26 13:47:49;;;;;;;7.10;4.25;;;;;;;;;;5061332;28;20056;-84
2023/08/26 13:50:15;;;;;;;6.57;4.05;;;;;;;;;;5071919;28;20048;-86
2023/08/26 13:52:43;;;;;;;6.60;3.92;;;;;;;;;;5064764;28;20041;-84
2023/08/26 13:55:10;;;;;;;5.93;3.65;;;;;;;;;;5066206;28;20051;-84
2023/08/26 13:57:37;;;;;;;6.53;4.35;;;;;;;;;;5066905;28;20053;-85
2023/08/26 14:00:05;;;;;;;6.32;3.85;;;;;;;;;;5063740;28;20518;-83
2023/08/26 14:02:31;;;;;;;5.93;4.03;;;;;;;;;;5065338;28;20055;-85
2023/08/26 14:04:58;;;;;;;6.00;4.32;;;;;;;;;;5034916;28;20476;-85
2023/08/26 14:07:24;;;;;;;7.25;4.80;;;;;;;;;;5041451;28;20052;-83
2023/08/26 14:09:52;;;;;;;7.80;5.00;;;;;;;;;;5052774;28;20476;-83
2023/08/26 14:12:19;;;;;;;7.07;4.65;;;;;;;;;;5052568;28;20051;-82
2023/08/26 14:14:45;;;;;;;7.30;4.63;;;;;;;;;;5054451;28;20049;-84
2023/08/26 14:17:12;;;;;;;7.43;5.38;;;;;;;;;;5059204;28;20139;-83
2023/08/26 14:19:38;;;;;;;7.32;5.95;;;;;;;;;;5058054;28;20048;-83
2023/08/26 14:22:05;;;;;;;6.72;5.63;;;;;;;;;;5063727;28;20108;-84
2023/08/26 14:24:31;;;;;;;7.03;5.60;;;;;;;;;;5066275;28;20080;-82
2023/08/26 14:26:59;;;;;;;8.80;5.90;;;;;;;;;;5064476;28;20429;-82
2023/08/26 14:29:26;;;;;;;5.90;4.10;;;;;;;;;;5060028;28;20055;-84
2023/08/26 14:31:53;;;;;;;2.60;1.40;;;;;;;;;;5058872;28;20052;-81
2023/08/26 14:34:19;;;;;;;3.53;1.27;;;;;;;;;;5059244;28;20041;-84
2023/08/26 14:36:46;;;;;;;4.88;1.60;;;;;;;;;;5057543;28;20045;-82
2023/08/26 14:39:12;;;;;;;5.45;1.40;;;;;;;;;;5059026;28;20414;-81
2023/08/26 14:41:39;;;;;;;6.13;1.30;;;;;;;;;;5056543;28;20074;-83